sensor_id;sensor_type;location;lat;lon;timestamp;pressure;altitude;pressure_sealevel;temperature;humidity
48553;BME280;34335;51.566;6.994;2024-03-23T00:54:16;100379.94;;;6.37;100.00
48553;BME280;34335;51.566;6.994;2024-03-23T00:56:41;100376.28;;;6.19;100.00
48553;BME280;34335;51.566;6.994;2024-03-23T00:59:07;100378.72;;;6.07;100.00
48553;BME280;34335;51.566;6.994;2024-03-23T01:01:32;100373.81;;;6.29;100.00
48553;BME280;34335;51.566;6.994;2024-03-23T01:03:57;100376.41;;;6.29;100.00
48553;BME280;34335;51.566;6.994;2024-03-23T01:06:23;100374.63;;;6.24;100.00
48553;BME280;34335;51.566;6.994;2024-03-23T01:08:48;100377.03;;;6.11;100.00
48553;BME280;34335;51.566;6.994;2024-03-23T01:11:13;100379.50;;;6.00;100.00
48553;BME280;34335;51.566;6.994;2024-03-23T01:13:39;100389.75;;;5.97;100.00
48553;BME280;34335;51.566;6.994;2024-03-23T01:16:04;100380.25;;;5.97;100.00
48553;BME280;34335;51.566;6.994;2024-03-23T01:18:29;100375.94;;;5.93;100.00
48553;BME280;34335;51.566;6.994;2024-03-23T01:20:55;100368.84;;;5.76;100.00
48553;BME280;34335;51.566;6.994;2024-03-23T01:23:20;100362.91;;;5.84;100.00
48553;BME280;34335;51.566;6.994;2024-03-23T01:25:53;100368.91;;;5.83;100.00
48553;BME280;34335;51.566;6.994;2024-03-23T01:28:19;100362.06;;;5.85;100.00
48553;BME280;34335;51.566;6.994;2024-03-23T01:30:44;100352.66;;;5.88;100.00
48553;BME280;34335;51.566;6.994;2024-03-23T01:33:10;100346.78;;;6.02;100.00
48553;BME280;34335;51.566;6.994;2024-03-23T01:35:35;100340.84;;;6.06;100.00
48553;BME280;34335;51.566;6.994;2024-03-23T01:38:00;100321.19;;;6.17;100.00
48553;BME280;34335;51.566;6.994;2024-03-23T01:40:25;100310.06;;;6.26;100.00
48553;BME280;34335;51.566;6.994;2024-03-23T01:43:03;100311.03;;;6.34;100.00
48553;BME280;34335;51.566;6.994;2024-03-23T01:45:29;100313.75;;;6.50;100.00
48553;BME280;34335;51.566;6.994;2024-03-23T01:47:54;100310.97;;;6.30;100.00
48553;BME280;34335;51.566;6.994;2024-03-23T01:50:20;100302.44;;;6.37;100.00
48553;BME280;34335;51.566;6.994;2024-03-23T01:52:47;100307.59;;;6.37;100.00
48553;BME280;34335;51.566;6.994;2024-03-23T01:55:12;100306.81;;;6.43;100.00
48553;BME280;34335;51.566;6.994;2024-03-23T01:57:37;100301.59;;;6.41;100.00
48553;BME280;34335;51.566;6.994;2024-03-23T02:00:03;100307.22;;;6.03;100.00
48553;BME280;34335;51.566;6.994;2024-03-23T02:02:28;100316.34;;;5.74;100.00
48553;BME280;34335;51.566;6.994;2024-03-23T02:04:53;100317.91;;;5.61;100.00
48553;BME280;34335;51.566;6.994;2024-03-23T02:07:19;100307.53;;;5.60;100.00
48553;BME280;34335;51.566;6.994;2024-03-23T02:09:44;100306.81;;;5.69;100.00
48553;BME280;34335;51.566;6.994;2024-03-23T02:12:09;100300.13;;;5.86;100.00
48553;BME280;34335;51.566;6.994;2024-03-23T02:14:36;100295.75;;;5.81;100.00
48553;BME280;34335;51.566;6.994;2024-03-23T02:17:02;100284.75;;;5.97;100.00
48553;BME280;34335;51.566;6.994;2024-03-23T02:19:27;100303.34;;;5.67;100.00
48553;BME280;34335;51.566;6.994;2024-03-23T02:21:52;100305.75;;;5.54;100.00
48553;BME280;34335;51.566;6.994;2024-03-23T02:24:17;100308.06;;;5.36;100.00
48553;BME280;34335;51.566;6.994;2024-03-23T02:26:43;100326.84;;;5.25;100.00
48553;BME280;34335;51.566;6.994;2024-03-23T02:29:08;100321.63;;;5.21;100.00
48553;BME280;34335;51.566;6.994;2024-03-23T02:31:34;100316.31;;;5.11;100.00
48553;BME280;34335;51.566;6.994;2024-03-23T02:34:00;100318.16;;;5.19;100.00
48553;BME280;34335;51.566;6.994;2024-03-23T02:36:25;100304.66;;;5.35;100.00
48553;BME280;34335;51.566;6.994;2024-03-23T02:38:51;100298.47;;;5.25;100.00
48553;BME280;34335;51.566;6.994;2024-03-23T02:41:16;100290.84;;;5.32;100.00
48553;BME280;34335;51.566;6.994;2024-03-23T02:43:51;100300.13;;;5.19;100.00
48553;BME280;34335;51.566;6.994;2024-03-23T02:46:16;100303.63;;;5.22;100.00
48553;BME280;34335;51.566;6.994;2024-03-23T02:48:41;100303.63;;;5.24;100.00
48553;BME280;34335;51.566;6.994;2024-03-23T02:51:07;100290.53;;;5.10;100.00
48553;BME280;34335;51.566;6.994;2024-03-23T02:53:32;100283.75;;;5.17;100.00
48553;BME280;34335;51.566;6.994;2024-03-23T02:55:58;100283.81;;;5.21;100.00
48553;BME280;34335;51.566;6.994;2024-03-23T02:58:23;100287.97;;;5.11;100.00
48553;BME280;34335;51.566;6.994;2024-03-23T03:00:49;100299.84;;;5.00;100.00
48553;BME280;34335;51.566;6.994;2024-03-23T03:03:14;100310.22;;;5.05;100.00
48553;BME280;34335;51.566;6.994;2024-03-23T03:05:39;100302.50;;;5.06;100.00
48553;BME280;34335;51.566;6.994;2024-03-23T03:08:05;100300.63;;;4.96;100.00
48553;BME280;34335;51.566;6.994;2024-03-23T03:10:30;100308.44;;;5.01;100.00
48553;BME280;34335;51.566;6.994;2024-03-23T03:12:56;100292.13;;;5.02;100.00
48553;BME280;34335;51.566;6.994;2024-03-23T03:15:22;100285.09;;;4.91;100.00
48553;BME280;34335;51.566;6.994;2024-03-23T03:17:47;100285.88;;;4.87;100.00
48553;BME280;34335;51.566;6.994;2024-03-23T03:20:12;100293.66;;;4.90;100.00
48553;BME280;34335;51.566;6.994;2024-03-23T03:22:38;100287.75;;;4.94;100.00
48553;BME280;34335;51.566;6.994;2024-03-23T03:25:04;100284.28;;;4.95;100.00
48553;BME280;34335;51.566;6.994;2024-03-23T03:27:30;100297.84;;;4.80;100.00
48553;BME280;34335;51.566;6.994;2024-03-23T03:29:55;100302.09;;;4.80;100.00
48553;BME280;34335;51.566;6.994;2024-03-23T03:32:20;100308.00;;;4.73;100.00
48553;BME280;34335;51.566;6.994;2024-03-23T03:34:46;100291.81;;;4.81;100.00
48553;BME280;34335;51.566;6.994;2024-03-23T03:37:11;100291.78;;;4.80;100.00
48553;BME280;34335;51.566;6.994;2024-03-23T03:39:36;100289.06;;;4.69;100.00
48553;BME280;34335;51.566;6.994;2024-03-23T03:42:02;100295.06;;;4.70;100.00
48553;BME280;34335;51.566;6.994;2024-03-23T03:44:31;100284.06;;;4.81;100.00
48553;BME280;34335;51.566;6.994;2024-03-23T03:46:57;100272.84;;;4.76;100.00
48553;BME280;34335;51.566;6.994;2024-03-23T03:49:22;100269.66;;;4.93;100.00
48553;BME280;34335;51.566;6.994;2024-03-23T03:51:48;100270.41;;;4.87;100.00
48553;BME280;34335;51.566;6.994;2024-03-23T03:54:13;100272.06;;;4.80;100.00
48553;BME280;34335;51.566;6.994;2024-03-23T03:56:38;100286.56;;;4.74;100.00
48553;BME280;34335;51.566;6.994;2024-03-23T03:59:03;100291.72;;;4.75;100.00
48553;BME280;34335;51.566;6.994;2024-03-23T04:01:29;100292.69;;;4.83;100.00
48553;BME280;34335;51.566;6.994;2024-03-23T04:03:55;100286.63;;;4.80;100.00
48553;BME280;34335;51.566;6.994;2024-03-23T04:06:20;100286.63;;;4.80;100.00
48553;BME280;34335;51.566;6.994;2024-03-23T04:08:45;100275.28;;;4.68;100.00
48553;BME280;34335;51.566;6.994;2024-03-23T04:11:11;100275.28;;;4.67;100.00
48553;BME280;34335;51.566;6.994;2024-03-23T04:13:36;100272.72;;;4.68;100.00
48553;BME280;34335;51.566;6.994;2024-03-23T04:16:01;100277.09;;;4.74;100.00
48553;BME280;34335;51.566;6.994;2024-03-23T04:18:27;100281.50;;;4.81;100.00
48553;BME280;34335;51.566;6.994;2024-03-23T04:20:52;100273.59;;;4.69;100.00
48553;BME280;34335;51.566;6.994;2024-03-23T04:23:17;100276.28;;;4.77;100.00
48553;BME280;34335;51.566;6.994;2024-03-23T04:25:43;100269.41;;;4.76;100.00
48553;BME280;34335;51.566;6.994;2024-03-23T04:28:08;100273.69;;;4.77;100.00
48553;BME280;34335;51.566;6.994;2024-03-23T04:30:34;100266.88;;;4.79;100.00
48553;BME280;34335;51.566;6.994;2024-03-23T04:32:59;100266.88;;;4.79;100.00
48553;BME280;34335;51.566;6.994;2024-03-23T04:35:26;100264.25;;;4.76;100.00
48553;BME280;34335;51.566;6.994;2024-03-23T04:37:51;100269.34;;;4.73;100.00
48553;BME280;34335;51.566;6.994;2024-03-23T04:40:17;100263.50;;;4.83;100.00
48553;BME280;34335;51.566;6.994;2024-03-23T04:42:43;100266.09;;;4.83;100.00
48553;BME280;34335;51.566;6.994;2024-03-23T04:45:08;100269.34;;;4.73;100.00
48553;BME280;34335;51.566;6.994;2024-03-23T04:47:34;100269.31;;;4.70;100.00
48553;BME280;34335;51.566;6.994;2024-03-23T04:50:01;100269.31;;;4.70;100.00
48553;BME280;34335;51.566;6.994;2024-03-23T04:52:27;100270.13;;;4.68;100.00
48553;BME280;34335;51.566;6.994;2024-03-23T04:54:52;100254.78;;;4.75;100.00
48553;BME280;34335;51.566;6.994;2024-03-23T04:57:17;100257.31;;;4.73;100.00
48553;BME280;34335;51.566;6.994;2024-03-23T04:59:42;100258.22;;;4.74;100.00
48553;BME280;34335;51.566;6.994;2024-03-23T05:02:08;100262.56;;;4.78;100.00
48553;BME280;34335;51.566;6.994;2024-03-23T05:04:33;100262.47;;;4.73;100.00
48553;BME280;34335;51.566;6.994;2024-03-23T05:06:58;100267.69;;;4.76;100.00
48553;BME280;34335;51.566;6.994;2024-03-23T05:09:24;100271.81;;;4.65;100.00
48553;BME280;34335;51.566;6.994;2024-03-23T05:11:54;100264.22;;;4.73;100.00
48553;BME280;34335;51.566;6.994;2024-03-23T05:14:20;100263.38;;;4.75;100.00
48553;BME280;34335;51.566;6.994;2024-03-23T05:16:45;100271.94;;;4.74;100.00
48553;BME280;34335;51.566;6.994;2024-03-23T05:19:10;100268.47;;;4.71;100.00
48553;BME280;34335;51.566;6.994;2024-03-23T05:21:35;100271.03;;;4.71;100.00
48553;BME280;34335;51.566;6.994;2024-03-23T05:24:01;100271.84;;;4.68;100.00
48553;BME280;34335;51.566;6.994;2024-03-23T05:26:26;100272.69;;;4.65;100.00
48553;BME280;34335;51.566;6.994;2024-03-23T05:28:51;100276.13;;;4.66;100.00
48553;BME280;34335;51.566;6.994;2024-03-23T05:31:24;100282.94;;;4.62;100.00
48553;BME280;34335;51.566;6.994;2024-03-23T05:33:49;100283.00;;;4.65;100.00
48553;BME280;34335;51.566;6.994;2024-03-23T05:36:15;100272.72;;;4.68;100.00
48553;BME280;34335;51.566;6.994;2024-03-23T05:38:40;100278.69;;;4.67;100.00
48553;BME280;34335;51.566;6.994;2024-03-23T05:41:05;100285.56;;;4.67;100.00
48553;BME280;34335;51.566;6.994;2024-03-23T05:43:31;100282.13;;;4.66;100.00
48553;BME280;34335;51.566;6.994;2024-03-23T05:45:57;100284.69;;;4.66;100.00
48553;BME280;34335;51.566;6.994;2024-03-23T05:48:23;100284.69;;;4.66;100.00
48553;BME280;34335;51.566;6.994;2024-03-23T05:50:50;100274.44;;;4.68;100.00
48553;BME280;34335;51.566;6.994;2024-03-23T05:53:16;100280.50;;;4.70;100.00
48553;BME280;34335;51.566;6.994;2024-03-23T05:55:41;100274.44;;;4.70;100.00
48553;BME280;34335;51.566;6.994;2024-03-23T05:58:07;100278.78;;;4.72;100.00
48553;BME280;34335;51.566;6.994;2024-03-23T06:00:32;100281.28;;;4.67;100.00
48553;BME280;34335;51.566;6.994;2024-03-23T06:02:58;100284.81;;;4.71;100.00
48553;BME280;34335;51.566;6.994;2024-03-23T06:05:23;100288.16;;;4.68;100.00
48553;BME280;34335;51.566;6.994;2024-03-23T06:07:49;100286.41;;;4.66;100.00
48553;BME280;34335;51.566;6.994;2024-03-23T06:10:15;100287.19;;;4.62;100.00
48553;BME280;34335;51.566;6.994;2024-03-23T06:12:40;100293.25;;;4.64;100.00
48553;BME280;34335;51.566;6.994;2024-03-23T06:15:06;100290.56;;;4.58;100.00
48553;BME280;34335;51.566;6.994;2024-03-23T06:17:38;100293.13;;;4.56;100.00
48553;BME280;34335;51.566;6.994;2024-03-23T06:20:04;100299.06;;;4.52;100.00
48553;BME280;34335;51.566;6.994;2024-03-23T06:22:31;100300.78;;;4.51;100.00
48553;BME280;34335;51.566;6.994;2024-03-23T06:24:57;100311.88;;;4.49;100.00
48553;BME280;34335;51.566;6.994;2024-03-23T06:27:22;100302.47;;;4.49;100.00
48553;BME280;34335;51.566;6.994;2024-03-23T06:29:47;100298.31;;;4.58;100.00
48553;BME280;34335;51.566;6.994;2024-03-23T06:32:12;100298.25;;;4.55;100.00
48553;BME280;34335;51.566;6.994;2024-03-23T06:34:38;100306.00;;;4.56;100.00
48553;BME280;34335;51.566;6.994;2024-03-23T06:37:05;100306.84;;;4.55;100.00
48553;BME280;34335;51.566;6.994;2024-03-23T06:39:31;100308.59;;;4.58;100.00
48553;BME280;34335;51.566;6.994;2024-03-23T06:41:56;100298.44;;;4.65;100.00
48553;BME280;34335;51.566;6.994;2024-03-23T06:44:21;100308.69;;;4.62;100.00
48553;BME280;34335;51.566;6.994;2024-03-23T06:46:47;100302.03;;;4.77;100.00
48553;BME280;34335;51.566;6.994;2024-03-23T06:49:14;100300.34;;;4.76;100.00
48553;BME280;34335;51.566;6.994;2024-03-23T06:51:39;100300.41;;;4.82;100.00
48553;BME280;34335;51.566;6.994;2024-03-23T06:54:05;100306.47;;;4.86;100.00
48553;BME280;34335;51.566;6.994;2024-03-23T06:56:30;100304.94;;;4.97;100.00
48553;BME280;34335;51.566;6.994;2024-03-23T06:58:56;100306.56;;;4.92;100.00
48553;BME280;34335;51.566;6.994;2024-03-23T07:01:22;100305.84;;;5.01;100.00
48553;BME280;34335;51.566;6.994;2024-03-23T07:03:47;100299.78;;;4.97;100.00
48553;BME280;34335;51.566;6.994;2024-03-23T07:06:12;100305.88;;;5.02;100.00
48553;BME280;34335;51.566;6.994;2024-03-23T07:08:37;100304.19;;;5.06;100.00
48553;BME280;34335;51.566;6.994;2024-03-23T07:11:03;100304.34;;;5.15;100.00
48553;BME280;34335;51.566;6.994;2024-03-23T07:13:28;100306.06;;;5.13;100.00
48553;BME280;34335;51.566;6.994;2024-03-23T07:15:54;100296.75;;;5.24;100.00
48553;BME280;34335;51.566;6.994;2024-03-23T07:18:21;100301.09;;;5.28;100.00
48553;BME280;34335;51.566;6.994;2024-03-23T07:20:56;100297.69;;;5.31;100.00
48553;BME280;34335;51.566;6.994;2024-03-23T07:23:22;100298.66;;;5.39;100.00
48553;BME280;34335;51.566;6.994;2024-03-23T07:26:01;100297.03;;;5.46;100.00
48553;BME280;34335;51.566;6.994;2024-03-23T07:28:26;100306.63;;;5.55;100.00
48553;BME280;34335;51.566;6.994;2024-03-23T07:31:06;100291.28;;;5.66;100.00
48553;BME280;34335;51.566;6.994;2024-03-23T07:33:34;100293.09;;;5.73;100.00
48553;BME280;34335;51.566;6.994;2024-03-23T07:35:59;100296.53;;;5.73;100.00
48553;BME280;34335;51.566;6.994;2024-03-23T07:38:27;100298.41;;;5.85;100.00
48553;BME280;34335;51.566;6.994;2024-03-23T07:40:52;100297.66;;;5.96;100.00
48553;BME280;34335;51.566;6.994;2024-03-23T07:43:27;100297.59;;;5.89;100.00
48553;BME280;34335;51.566;6.994;2024-03-23T07:45:53;100296.78;;;5.93;100.00
48553;BME280;34335;51.566;6.994;2024-03-23T07:48:18;100295.88;;;5.90;100.00
48553;BME280;34335;51.566;6.994;2024-03-23T07:50:44;100291.66;;;5.97;100.00
48553;BME280;34335;51.566;6.994;2024-03-23T07:53:09;100297.88;;;6.13;100.00
48553;BME280;34335;51.566;6.994;2024-03-23T07:55:34;100286.69;;;6.12;100.00
48553;BME280;34335;51.566;6.994;2024-03-23T07:58:00;100292.88;;;6.27;100.00
48553;BME280;34335;51.566;6.994;2024-03-23T08:00:25;100295.56;;;6.39;100.00
48553;BME280;34335;51.566;6.994;2024-03-23T08:02:51;100287.06;;;6.52;100.00
48553;BME280;34335;51.566;6.994;2024-03-23T08:05:16;100300.19;;;6.76;100.00
48553;BME280;34335;51.566;6.994;2024-03-23T08:07:42;100303.47;;;6.54;100.00
48553;BME280;34335;51.566;6.994;2024-03-23T08:10:07;100302.59;;;6.54;100.00
48553;BME280;34335;51.566;6.994;2024-03-23T08:12:33;100298.41;;;6.70;100.00
48553;BME280;34335;51.566;6.994;2024-03-23T08:14:58;100300.25;;;6.85;100.00
48553;BME280;34335;51.566;6.994;2024-03-23T08:17:23;100305.50;;;6.93;100.00
48553;BME280;34335;51.566;6.994;2024-03-23T08:19:49;100295.28;;;7.10;100.00
48553;BME280;34335;51.566;6.994;2024-03-23T08:22:14;100294.47;;;7.18;100.00
48553;BME280;34335;51.566;6.994;2024-03-23T08:24:39;100294.47;;;7.18;100.00
48553;BME280;34335;51.566;6.994;2024-03-23T08:27:04;100296.13;;;7.09;100.00
48553;BME280;34335;51.566;6.994;2024-03-23T08:29:30;100306.44;;;7.04;100.00
48553;BME280;34335;51.566;6.994;2024-03-23T08:31:55;100293.56;;;7.13;100.00
48553;BME280;34335;51.566;6.994;2024-03-23T08:34:20;100285.00;;;7.19;100.00
48553;BME280;34335;51.566;6.994;2024-03-23T08:36:45;100283.31;;;7.27;100.00
48553;BME280;34335;51.566;6.994;2024-03-23T08:39:11;100281.63;;;7.34;100.00
48553;BME280;34335;51.566;6.994;2024-03-23T08:41:36;100282.50;;;7.41;100.00
48553;BME280;34335;51.566;6.994;2024-03-23T08:44:02;100289.41;;;7.34;100.00
48553;BME280;34335;51.566;6.994;2024-03-23T08:46:27;100283.22;;;7.15;100.00
48553;BME280;34335;51.566;6.994;2024-03-23T08:48:52;100282.47;;;7.28;100.00
48553;BME280;34335;51.566;6.994;2024-03-23T08:51:18;100282.47;;;7.36;100.00
48553;BME280;34335;51.566;6.994;2024-03-23T08:53:44;100283.41;;;7.40;100.00
48553;BME280;34335;51.566;6.994;2024-03-23T08:56:10;100282.63;;;7.61;100.00
48553;BME280;34335;51.566;6.994;2024-03-23T08:58:36;100287.84;;;7.73;100.00
48553;BME280;34335;51.566;6.994;2024-03-23T09:01:10;100279.31;;;8.02;100.00
48553;BME280;34335;51.566;6.994;2024-03-23T09:03:36;100274.84;;;7.55;100.00
48553;BME280;34335;51.566;6.994;2024-03-23T09:06:13;100282.69;;;7.79;100.00
48553;BME280;34335;51.566;6.994;2024-03-23T09:08:38;100287.84;;;7.69;100.00
48553;BME280;34335;51.566;6.994;2024-03-23T09:11:06;100279.91;;;7.36;100.00
48553;BME280;34335;51.566;6.994;2024-03-23T09:13:36;100288.44;;;7.16;100.00
48553;BME280;34335;51.566;6.994;2024-03-23T09:16:02;100286.81;;;7.36;100.00
48553;BME280;34335;51.566;6.994;2024-03-23T09:18:27;100292.88;;;7.44;100.00
48553;BME280;34335;51.566;6.994;2024-03-23T09:20:53;100293.88;;;7.69;100.00
48553;BME280;34335;51.566;6.994;2024-03-23T09:23:22;100300.53;;;7.24;100.00
48553;BME280;34335;51.566;6.994;2024-03-23T09:25:47;100303.84;;;7.06;100.00
48553;BME280;34335;51.566;6.994;2024-03-23T09:28:12;100292.75;;;7.22;100.00
48553;BME280;34335;51.566;6.994;2024-03-23T09:30:38;100287.78;;;7.58;100.00
48553;BME280;34335;51.566;6.994;2024-03-23T09:33:07;100286.16;;;7.82;100.00
48553;BME280;34335;51.566;6.994;2024-03-23T09:35:37;100299.16;;;8.03;100.00
48553;BME280;34335;51.566;6.994;2024-03-23T09:38:02;100293.19;;;8.26;100.00
48553;BME280;34335;51.566;6.994;2024-03-23T09:40:27;100299.25;;;8.26;100.00
48553;BME280;34335;51.566;6.994;2024-03-23T09:42:52;100304.25;;;7.72;100.00
48553;BME280;34335;51.566;6.994;2024-03-23T09:45:26;100297.22;;;7.43;100.00
48553;BME280;34335;51.566;6.994;2024-03-23T09:47:52;100296.44;;;7.64;100.00
48553;BME280;34335;51.566;6.994;2024-03-23T09:50:18;100292.94;;;7.52;100.00
48553;BME280;34335;51.566;6.994;2024-03-23T09:52:45;100305.78;;;7.35;100.00
48553;BME280;34335;51.566;6.994;2024-03-23T09:55:11;100305.03;;;7.53;100.00
48553;BME280;34335;51.566;6.994;2024-03-23T09:57:36;100305.88;;;7.53;100.00
48553;BME280;34335;51.566;6.994;2024-03-23T10:00:02;100290.22;;;7.31;100.00
48553;BME280;34335;51.566;6.994;2024-03-23T10:02:28;100286.00;;;7.44;100.00
48553;BME280;34335;51.566;6.994;2024-03-23T10:04:54;100285.22;;;7.67;100.00
48553;BME280;34335;51.566;6.994;2024-03-23T10:07:20;100274.91;;;7.81;100.00
48553;BME280;34335;51.566;6.994;2024-03-23T10:09:46;100267.28;;;8.26;100.00
48553;BME280;34335;51.566;6.994;2024-03-23T10:12:13;100262.16;;;8.71;100.00
48553;BME280;34335;51.566;6.994;2024-03-23T10:14:39;100250.88;;;8.32;100.00
48553;BME280;34335;51.566;6.994;2024-03-23T10:17:21;100261.22;;;8.33;100.00
48553;BME280;34335;51.566;6.994;2024-03-23T10:19:52;100265.56;;;8.28;100.00
48553;BME280;34335;51.566;6.994;2024-03-23T10:22:20;100272.41;;;8.07;100.00
48553;BME280;34335;51.566;6.994;2024-03-23T10:24:45;100260.31;;;8.00;100.00
48553;BME280;34335;51.566;6.994;2024-03-23T10:27:18;100268.94;;;7.96;100.00
48553;BME280;34335;51.566;6.994;2024-03-23T10:30:10;100271.25;;;7.31;100.00
48553;BME280;34335;51.566;6.994;2024-03-23T10:32:36;100250.81;;;8.05;100.00
48553;BME280;34335;51.566;6.994;2024-03-23T10:35:18;100261.22;;;8.27;100.00
48553;BME280;34335;51.566;6.994;2024-03-23T10:37:45;100255.22;;;8.40;100.00
48553;BME280;34335;51.566;6.994;2024-03-23T10:40:12;100250.03;;;8.42;100.00
48553;BME280;34335;51.566;6.994;2024-03-23T10:42:38;100250.88;;;9.12;100.00
48553;BME280;34335;51.566;6.994;2024-03-23T10:45:05;100243.13;;;8.83;100.00
48553;BME280;34335;51.566;6.994;2024-03-23T10:47:31;100262.16;;;8.57;100.00
48553;BME280;34335;51.566;6.994;2024-03-23T10:49:57;100274.84;;;7.61;100.00
48553;BME280;34335;51.566;6.994;2024-03-23T10:52:23;100274.78;;;7.45;100.00
48553;BME280;34335;51.566;6.994;2024-03-23T10:54:51;100271.88;;;6.93;100.00
48553;BME280;34335;51.566;6.994;2024-03-23T10:57:25;100303.75;;;6.90;100.00
48553;BME280;34335;51.566;6.994;2024-03-23T10:59:52;100305.19;;;6.55;100.00
48553;BME280;34335;51.566;6.994;2024-03-23T11:02:21;100326.84;;;6.70;100.00
48553;BME280;34335;51.566;6.994;2024-03-23T11:04:47;100312.78;;;6.40;100.00
48553;BME280;34335;51.566;6.994;2024-03-23T11:09:53;100300.41;;;6.08;100.00
48553;BME280;34335;51.566;6.994;2024-03-23T11:14:47;100295.91;;;6.78;100.00
48553;BME280;34335;51.566;6.994;2024-03-23T11:17:24;100287.41;;;6.93;100.00
48553;BME280;34335;51.566;6.994;2024-03-23T11:20:05;100289.41;;;7.36;100.00
48553;BME280;34335;51.566;6.994;2024-03-23T11:22:44;100279.66;;;6.93;100.00
48553;BME280;34335;51.566;6.994;2024-03-23T11:25:25;100277.25;;;7.24;100.00
48553;BME280;34335;51.566;6.994;2024-03-23T11:27:58;100271.41;;;7.65;100.00
48553;BME280;34335;51.566;6.994;2024-03-23T11:30:34;100277.56;;;7.92;100.00
48553;BME280;34335;51.566;6.994;2024-03-23T11:33:02;100275.88;;;8.00;100.00
48553;BME280;34335;51.566;6.994;2024-03-23T11:35:28;100268.09;;;7.95;100.00
48553;BME280;34335;51.566;6.994;2024-03-23T11:38:07;100271.44;;;7.68;100.00
48553;BME280;34335;51.566;6.994;2024-03-23T11:40:33;100275.00;;;7.97;100.00
48553;BME280;34335;51.566;6.994;2024-03-23T11:43:09;100268.22;;;8.54;100.00
48553;BME280;34335;51.566;6.994;2024-03-23T11:45:38;100277.72;;;8.60;100.00
48553;BME280;34335;51.566;6.994;2024-03-23T11:48:08;100275.91;;;8.28;100.00
48553;BME280;34335;51.566;6.994;2024-03-23T11:50:37;100256.97;;;8.60;100.00
48553;BME280;34335;51.566;6.994;2024-03-23T11:53:12;100262.88;;;7.99;100.00
48553;BME280;34335;51.566;6.994;2024-03-23T11:58:14;100274.19;;;8.33;100.00
48553;BME280;34335;51.566;6.994;2024-03-23T12:00:40;100267.34;;;8.71;100.00
48553;BME280;34335;51.566;6.994;2024-03-23T12:03:06;100247.47;;;8.56;100.00
48553;BME280;34335;51.566;6.994;2024-03-23T12:05:32;100239.66;;;8.71;100.00
48553;BME280;34335;51.566;6.994;2024-03-23T12:11:04;100240.47;;;8.08;100.00
48553;BME280;34335;51.566;6.994;2024-03-23T12:13:29;100272.25;;;7.62;100.00
48553;BME280;34335;51.566;6.994;2024-03-23T12:15:55;100253.47;;;6.52;100.00
48553;BME280;34335;51.566;6.994;2024-03-23T12:18:33;100257.81;;;6.55;100.00
48553;BME280;34335;51.566;6.994;2024-03-23T12:20:59;100245.81;;;6.59;100.00
48553;BME280;34335;51.566;6.994;2024-03-23T12:23:25;100241.81;;;7.07;100.00
48553;BME280;34335;51.566;6.994;2024-03-23T12:25:50;100232.56;;;7.57;100.00
48553;BME280;34335;51.566;6.994;2024-03-23T12:28:15;100237.88;;;7.93;100.00
48553;BME280;34335;51.566;6.994;2024-03-23T12:30:41;100234.44;;;8.25;100.00
48553;BME280;34335;51.566;6.994;2024-03-23T12:33:06;100228.41;;;8.23;100.00
48553;BME280;34335;51.566;6.994;2024-03-23T12:35:32;100217.22;;;8.49;100.00
48553;BME280;34335;51.566;6.994;2024-03-23T12:37:58;100218.94;;;8.71;100.00
48553;BME280;34335;51.566;6.994;2024-03-23T12:40:23;100224.09;;;8.43;100.00
48553;BME280;34335;51.566;6.994;2024-03-23T12:42:48;100215.44;;;9.07;100.00
48553;BME280;34335;51.566;6.994;2024-03-23T12:45:14;100213.56;;;9.40;100.00
48553;BME280;34335;51.566;6.994;2024-03-23T12:47:39;100227.13;;;10.01;100.00
48553;BME280;34335;51.566;6.994;2024-03-23T12:50:05;100227.34;;;9.63;100.00
48553;BME280;34335;51.566;6.994;2024-03-23T12:52:31;100225.72;;;9.24;100.00
48553;BME280;34335;51.566;6.994;2024-03-23T12:54:58;100229.22;;;9.21;100.00
48553;BME280;34335;51.566;6.994;2024-03-23T12:57:24;100231.00;;;9.02;100.00
48553;BME280;34335;51.566;6.994;2024-03-23T12:59:51;100240.53;;;8.66;100.00
48553;BME280;34335;51.566;6.994;2024-03-23T13:02:18;100234.50;;;8.59;100.00
48553;BME280;34335;51.566;6.994;2024-03-23T13:04:45;100256.03;;;8.08;100.00
48553;BME280;34335;51.566;6.994;2024-03-23T13:07:10;100253.31;;;7.62;100.00
48553;BME280;34335;51.566;6.994;2024-03-23T13:09:35;100259.06;;;7.13;100.00
48553;BME280;34335;51.566;6.994;2024-03-23T13:12:01;100264.44;;;7.47;100.00
48553;BME280;34335;51.566;6.994;2024-03-23T13:14:26;100262.34;;;6.81;100.00
48553;BME280;34335;51.566;6.994;2024-03-23T13:16:52;100262.19;;;6.62;100.00
48553;BME280;34335;51.566;6.994;2024-03-23T13:19:17;100268.31;;;6.75;100.00
48553;BME280;34335;51.566;6.994;2024-03-23T13:21:42;100268.31;;;6.78;100.00
48553;BME280;34335;51.566;6.994;2024-03-23T13:24:08;100270.72;;;6.55;100.00
48553;BME280;34335;51.566;6.994;2024-03-23T13:26:33;100269.03;;;6.54;100.00
48553;BME280;34335;51.566;6.994;2024-03-23T13:28:59;100265.44;;;6.41;100.00
48553;BME280;34335;51.566;6.994;2024-03-23T13:31:24;100266.09;;;6.21;100.00
48553;BME280;34335;51.566;6.994;2024-03-23T13:33:50;100252.47;;;6.33;100.00
48553;BME280;34335;51.566;6.994;2024-03-23T13:36:15;100266.00;;;6.09;100.00
48553;BME280;34335;51.566;6.994;2024-03-23T13:38:40;100252.22;;;6.07;100.00
48553;BME280;34335;51.566;6.994;2024-03-23T13:41:06;100269.63;;;6.27;100.00
48553;BME280;34335;51.566;6.994;2024-03-23T13:43:32;100257.75;;;6.50;100.00
48553;BME280;34335;51.566;6.994;2024-03-23T13:45:58;100256.25;;;6.73;100.00
48553;BME280;34335;51.566;6.994;2024-03-23T13:48:25;100254.69;;;7.01;100.00
48553;BME280;34335;51.566;6.994;2024-03-23T13:51:04;100259.88;;;6.99;100.00